Time;durP1;ratioP1;P1;durP2;ratioP2;P2;SDS_P1;SDS_P2;PMS_P1;PMS_P2;Temp;Humidity;BMP_temperature;BMP_pressure;BME280_temperature;BME280_humidity;BME280_pressure;Samples;Min_cycle;Max_cycle;Signal;HPM_P1;HPM_P2
2023/02/07 06:26:27;;;;;;;58.20;23.55;;;;;;;;;;5963257;24;20011;-95
2023/02/07 06:32:22;;;;;;;54.03;22.92;;;;;;;;;;6008807;23;20004;-95
2023/02/07 06:34:58;;;;;;;62.13;24.48;;;;;;;;;;6054360;23;20014;-96
2023/02/07 07:08:55;;;;;;;;;;;;;;;;;;;;;
2023/02/07 08:02:35;;;;;;;45.10;32.08;;;;;;;;;;6068388;23;20463;-95
2023/02/07 08:05:01;;;;;;;38.83;27.45;;;;;;;;;;6160052;23;20024;-95
2023/02/07 08:07:31;;;;;;;55.30;33.30;;;;;;;;;;6161052;23;20048;-95
2023/02/07 08:18:16;;;;;;;32.85;24.73;;;;;;;;;;6340304;22;20296;-96
2023/02/07 08:20:48;;;;;;;28.15;21.40;;;;;;;;;;6352591;22;20011;-96
2023/02/07 08:23:16;;;;;;;28.25;20.95;;;;;;;;;;6352761;22;20009;-96
2023/02/07 08:25:43;;;;;;;30.85;24.17;;;;;;;;;;6330125;22;20007;-96
2023/02/07 08:28:11;;;;;;;28.70;22.15;;;;;;;;;;6333380;22;19999;-96
2023/02/07 08:31:01;;;;;;;29.60;21.80;;;;;;;;;;6356465;22;19995;-96
2023/02/07 08:33:37;;;;;;;26.13;19.95;;;;;;;;;;6328696;22;20006;-97
2023/02/07 08:41:42;;;;;;;27.13;18.25;;;;;;;;;;6365022;22;20026;-96
2023/02/07 08:47:32;;;;;;;24.23;19.13;;;;;;;;;;6234832;23;20102;-96
2023/02/07 08:50:11;;;;;;;27.35;20.10;;;;;;;;;;6231279;22;20010;-96
2023/02/07 08:55:44;;;;;;;24.23;18.50;;;;;;;;;;6355737;22;20097;-96
2023/02/07 08:58:11;;;;;;;20.95;16.00;;;;;;;;;;6320887;22;20007;-96
2023/02/07 09:00:38;;;;;;;24.38;17.42;;;;;;;;;;6321479;22;20015;-95
2023/02/07 09:03:16;;;;;;;23.17;17.77;;;;;;;;;;6319945;22;20350;-96
2023/02/07 09:05:42;;;;;;;23.13;17.70;;;;;;;;;;6325425;22;20002;-94
2023/02/07 09:08:23;;;;;;;22.45;17.20;;;;;;;;;;6319618;22;19998;-94
2023/02/07 09:10:52;;;;;;;22.13;16.75;;;;;;;;;;6318236;22;20027;-96
2023/02/07 09:13:18;;;;;;;24.02;16.95;;;;;;;;;;6318037;22;20086;-95
2023/02/07 09:15:52;;;;;;;24.58;17.65;;;;;;;;;;6317697;22;20007;-96
2023/02/07 09:18:18;;;;;;;20.83;16.73;;;;;;;;;;6316974;22;20003;-95
2023/02/07 09:20:45;;;;;;;21.83;17.23;;;;;;;;;;6319165;22;20014;-93
2023/02/07 09:23:20;;;;;;;22.60;16.90;;;;;;;;;;6316783;22;19995;-94
2023/02/07 09:25:48;;;;;;;23.63;18.38;;;;;;;;;;6316585;22;20002;-94
2023/02/07 09:28:30;;;;;;;25.27;18.52;;;;;;;;;;6316814;22;20034;-96
2023/02/07 09:30:56;;;;;;;26.20;18.83;;;;;;;;;;6315103;22;20017;-93
2023/02/07 09:33:40;;;;;;;26.52;20.35;;;;;;;;;;6314499;22;20054;-95
2023/02/07 09:36:22;;;;;;;26.23;20.10;;;;;;;;;;6314513;22;20347;-96
2023/02/07 09:38:49;;;;;;;26.20;19.60;;;;;;;;;;6314308;22;19998;-93
2023/02/07 09:41:18;;;;;;;26.80;20.50;;;;;;;;;;6313427;22;20090;-95
2023/02/07 09:44:05;;;;;;;22.83;16.58;;;;;;;;;;6313416;22;19999;-92
2023/02/07 09:46:35;;;;;;;24.15;17.60;;;;;;;;;;6323649;22;20032;-93
2023/02/07 09:49:03;;;;;;;24.77;17.48;;;;;;;;;;6320996;22;20006;-96
2023/02/07 09:51:30;;;;;;;24.55;18.33;;;;;;;;;;6317344;22;20007;-96
2023/02/07 09:54:03;;;;;;;22.75;17.15;;;;;;;;;;6314520;22;20007;-94
2023/02/07 09:56:32;;;;;;;22.70;16.85;;;;;;;;;;6314446;22;20015;-93
2023/02/07 09:59:05;;;;;;;29.05;19.73;;;;;;;;;;6330587;22;19991;-92
2023/02/07 10:01:42;;;;;;;21.00;16.23;;;;;;;;;;6335993;22;20546;-93
2023/02/07 10:04:20;;;;;;;24.98;18.05;;;;;;;;;;6318322;22;20007;-93
2023/02/07 10:06:51;;;;;;;24.95;18.20;;;;;;;;;;6315732;22;20002;-94
2023/02/07 10:09:28;;;;;;;22.50;16.95;;;;;;;;;;6314657;22;20035;-95
2023/02/07 10:12:14;;;;;;;24.23;17.85;;;;;;;;;;6314749;22;20151;-94
2023/02/07 10:14:40;;;;;;;20.58;15.98;;;;;;;;;;6317779;22;20003;-95
2023/02/07 10:17:31;;;;;;;23.17;18.17;;;;;;;;;;6321729;22;20007;-94
2023/02/07 10:20:16;;;;;;;21.83;16.90;;;;;;;;;;6318365;22;20010;-93
2023/02/07 10:23:07;;;;;;;20.23;15.32;;;;;;;;;;6319554;22;20014;-93
2023/02/07 10:26:01;;;;;;;22.75;17.60;;;;;;;;;;6328803;22;20010;-94
2023/02/07 10:35:04;;;;;;;20.05;14.65;;;;;;;;;;6263849;23;20023;-92
2023/02/07 10:38:02;;;;;;;;;;;;;;;;;;;;;
2023/02/07 10:48:35;;;;;;;15.27;10.27;;;;;;;;;;6309292;22;20027;-92
2023/02/07 10:57:54;;;;;;;17.20;10.95;;;;;;;;;;6264548;22;20011;-94
2023/02/07 11:03:24;;;;;;;18.92;9.82;;;;;;;;;;6319821;22;20034;-94
2023/02/07 11:06:06;;;;;;;18.05;10.77;;;;;;;;;;6326870;22;20003;-92
2023/02/07 11:12:33;;;;;;;17.20;10.07;;;;;;;;;;6329406;22;20022;-92
2023/02/07 11:23:41;;;;;;;20.52;11.85;;;;;;;;;;6313170;22;20023;-94
2023/02/07 11:26:33;;;;;;;18.45;9.95;;;;;;;;;;6323964;22;20007;-93
2023/02/07 11:29:26;;;;;;;19.23;11.07;;;;;;;;;;6321611;22;20145;-93
2023/02/07 11:34:35;;;;;;;16.55;10.02;;;;;;;;;;6304430;22;20269;-92
2023/02/07 11:37:16;;;;;;;17.98;10.02;;;;;;;;;;6321355;22;20034;-92
2023/02/07 11:39:46;;;;;;;20.95;11.43;;;;;;;;;;6324433;22;20007;-92
2023/02/07 11:42:13;;;;;;;18.70;10.98;;;;;;;;;;6320927;22;20027;-93
2023/02/07 11:44:43;;;;;;;19.15;10.20;;;;;;;;;;6319692;22;21058;-89
2023/02/07 11:53:03;;;;;;;15.60;9.60;;;;;;;;;;6344038;22;20101;-92
2023/02/07 11:58:02;;;;;;;18.90;10.52;;;;;;;;;;6356379;22;20014;-92
2023/02/07 12:03:19;;;;;;;21.48;11.52;;;;;;;;;;6349543;22;19915;-92
2023/02/07 12:06:20;;;;;;;19.02;11.30;;;;;;;;;;6328427;22;19982;-96
2023/02/07 12:09:03;;;;;;;19.73;11.35;;;;;;;;;;6332630;22;20003;-93
2023/02/07 12:11:37;;;;;;;18.83;10.77;;;;;;;;;;6313456;22;20448;-92
2023/02/07 12:14:07;;;;;;;19.10;11.32;;;;;;;;;;6322187;22;20074;-93
2023/02/07 12:22:35;;;;;;;20.10;12.27;;;;;;;;;;6341114;22;20033;-92
2023/02/07 12:25:26;;;;;;;19.33;11.70;;;;;;;;;;6321545;22;20010;-93
2023/02/07 12:28:07;;;;;;;21.10;12.43;;;;;;;;;;6322821;22;20030;-94
2023/02/07 12:30:33;;;;;;;22.25;14.55;;;;;;;;;;6322199;22;20014;-92
2023/02/07 12:33:34;;;;;;;21.25;13.00;;;;;;;;;;6322312;22;20003;-93
2023/02/07 12:36:36;;;;;;;21.98;13.57;;;;;;;;;;6350672;22;20060;-93
2023/02/07 12:42:05;;;;;;;22.45;13.20;;;;;;;;;;6348605;22;20022;-92
2023/02/07 12:44:57;;;;;;;22.90;14.07;;;;;;;;;;6318490;22;20006;-92
2023/02/07 12:47:25;;;;;;;20.40;12.23;;;;;;;;;;6308532;22;19991;-92
2023/02/07 12:49:51;;;;;;;22.33;11.95;;;;;;;;;;6318492;22;20014;-92
2023/02/07 12:52:39;;;;;;;21.90;12.98;;;;;;;;;;6321499;22;20007;-93
2023/02/07 12:55:14;;;;;;;22.52;13.07;;;;;;;;;;6323397;22;20052;-93
2023/02/07 12:57:59;;;;;;;25.98;14.50;;;;;;;;;;6322172;22;20081;-93
2023/02/07 13:00:33;;;;;;;22.58;12.27;;;;;;;;;;6321502;22;20015;-94
2023/02/07 13:03:05;;;;;;;25.50;13.90;;;;;;;;;;6317489;22;19998;-92
2023/02/07 13:05:50;;;;;;;25.70;14.70;;;;;;;;;;6325272;22;20003;-94
2023/02/07 13:08:39;;;;;;;37.85;15.65;;;;;;;;;;6321895;22;19995;-94
2023/02/07 13:11:09;;;;;;;29.20;15.48;;;;;;;;;;6304653;22;19999;-93
2023/02/07 13:13:58;;;;;;;29.33;16.40;;;;;;;;;;6325095;22;19997;-94
2023/02/07 13:16:36;;;;;;;29.42;16.77;;;;;;;;;;6316583;22;19999;-95
2023/02/07 13:19:25;;;;;;;32.20;16.08;;;;;;;;;;6347706;22;20411;-95
2023/02/07 13:22:10;;;;;;;25.85;14.80;;;;;;;;;;6262989;22;20030;-94
2023/02/07 13:24:44;;;;;;;29.40;15.35;;;;;;;;;;6324278;22;20382;-92
2023/02/07 13:27:20;;;;;;;31.13;16.15;;;;;;;;;;6324337;22;20023;-93
2023/02/07 13:29:47;;;;;;;33.70;17.38;;;;;;;;;;6319274;22;19987;-92
2023/02/07 13:32:22;;;;;;;31.58;17.30;;;;;;;;;;6300722;22;20074;-91
2023/02/07 13:34:53;;;;;;;29.65;15.75;;;;;;;;;;6321519;22;20023;-92
2023/02/07 13:41:17;;;;;;;28.33;15.88;;;;;;;;;;6189657;22;20341;-92
2023/02/07 13:43:43;;;;;;;30.30;15.40;;;;;;;;;;6306698;22;20443;-93
2023/02/07 13:46:26;;;;;;;31.48;15.38;;;;;;;;;;6314288;22;20003;-92
2023/02/07 13:48:52;;;;;;;28.90;15.75;;;;;;;;;;6315005;22;20009;-92
2023/02/07 13:51:23;;;;;;;29.75;15.85;;;;;;;;;;6314844;22;20007;-91
2023/02/07 13:53:52;;;;;;;28.73;15.82;;;;;;;;;;6317062;22;20011;-93
2023/02/07 13:59:53;;;;;;;;;;;;;;;;;;;;;
2023/02/07 14:02:48;;;;;;;34.53;15.90;;;;;;;;;;6298058;22;20031;-93
2023/02/07 14:05:33;;;;;;;34.15;16.83;;;;;;;;;;6305668;22;19995;-93
2023/02/07 14:11:27;;;;;;;32.47;16.38;;;;;;;;;;6329501;22;20129;-94
2023/02/07 14:14:19;;;;;;;30.23;15.20;;;;;;;;;;6325416;22;20003;-93
2023/02/07 14:20:10;;;;;;;29.23;15.63;;;;;;;;;;6330434;22;20025;-93
2023/02/07 14:22:48;;;;;;;32.47;16.30;;;;;;;;;;6312107;22;20015;-93
2023/02/07 14:27:50;;;;;;;34.80;17.27;;;;;;;;;;6361727;22;20015;-93
2023/02/07 14:30:35;;;;;;;31.85;16.25;;;;;;;;;;6329602;22;20003;-92
2023/02/07 14:36:23;;;;;;;30.98;15.85;;;;;;;;;;6358052;22;20021;-90
2023/02/07 14:39:21;;;;;;;32.30;17.00;;;;;;;;;;6330759;22;19998;-93
2023/02/07 14:42:25;;;;;;;31.17;16.58;;;;;;;;;;6334678;22;20025;-91
2023/02/07 14:47:36;;;;;;;;;;;;;;;;;;6204290;23;19978;-93
2023/02/07 14:50:32;;;;;;;34.05;17.05;;;;;;;;;;6178793;23;19977;-95
2023/02/07 14:58:34;;;;;;;34.65;16.85;;;;;;;;;;6324469;22;19915;-94
2023/02/07 15:01:02;;;;;;;31.17;16.63;;;;;;;;;;6309719;22;20002;-92
2023/02/07 15:04:14;;;;;;;;;;;;;;;;;;;;;
2023/02/07 15:06:46;;;;;;;33.72;16.85;;;;;;;;;;6327702;22;20015;-93
2023/02/07 15:13:10;;;;;;;34.17;16.88;;;;;;;;;;6331712;22;20004;-91
2023/02/07 15:15:47;;;;;;;32.95;16.08;;;;;;;;;;6277928;22;20021;-91
2023/02/07 15:24:18;;;;;;;32.28;17.10;;;;;;;;;;6315577;22;20054;-94
2023/02/07 15:26:57;;;;;;;34.00;16.80;;;;;;;;;;6325811;22;20003;-93
2023/02/07 15:29:33;;;;;;;33.53;16.58;;;;;;;;;;6352525;22;20006;-95
2023/02/07 15:32:32;;;;;;;35.15;18.02;;;;;;;;;;6354065;22;20025;-95
2023/02/07 15:35:27;;;;;;;43.10;18.33;;;;;;;;;;6351227;22;20424;-93
2023/02/07 15:38:19;;;;;;;38.53;17.48;;;;;;;;;;6324279;22;20003;-95
2023/02/07 15:44:35;;;;;;;36.70;18.63;;;;;;;;;;6187486;23;20024;-94
2023/02/07 15:47:18;;;;;;;36.80;17.75;;;;;;;;;;6260324;22;20007;-95
2023/02/07 15:50:31;;;;;;;38.30;18.33;;;;;;;;;;6337447;22;20006;-92
2023/02/07 15:53:25;;;;;;;34.42;18.33;;;;;;;;;;6302513;22;20006;-95
2023/02/07 15:56:33;;;;;;;42.27;18.80;;;;;;;;;;6262864;22;20002;-94
2023/02/07 15:59:57;;;;;;;;;;;;;;;;;;;;;
2023/02/07 16:06:31;;;;;;;42.45;19.75;;;;;;;;;;6198081;23;20043;-94
2023/02/07 16:09:40;;;;;;;50.40;22.08;;;;;;;;;;6150571;23;20014;-93
2023/02/07 16:12:54;;;;;;;43.72;20.35;;;;;;;;;;6123228;23;20014;-95
2023/02/07 16:16:01;;;;;;;52.72;22.83;;;;;;;;;;6137953;23;20026;-94
2023/02/07 16:19:03;;;;;;;47.33;21.50;;;;;;;;;;6145744;23;20202;-94
2023/02/07 16:22:09;;;;;;;52.30;23.38;;;;;;;;;;6144052;23;20045;-93
2023/02/07 16:25:01;;;;;;;46.33;22.88;;;;;;;;;;6229759;23;20057;-94
2023/02/07 16:27:54;;;;;;;46.28;22.70;;;;;;;;;;6227201;23;20000;-94
2023/02/07 16:30:56;;;;;;;48.13;22.58;;;;;;;;;;6229282;23;20026;-96
2023/02/07 16:33:22;;;;;;;50.22;22.50;;;;;;;;;;6204332;23;20008;-91
2023/02/07 16:36:21;;;;;;;51.30;23.25;;;;;;;;;;6231239;23;20019;-95
2023/02/07 16:39:44;;;;;;;60.10;25.33;;;;;;;;;;6276712;22;20006;-96
2023/02/07 16:42:38;;;;;;;46.95;21.30;;;;;;;;;;6313805;22;20011;-95
2023/02/07 16:45:39;;;;;;;50.10;22.65;;;;;;;;;;6324343;22;20014;-93
2023/02/07 16:51:52;;;;;;;45.90;22.77;;;;;;;;;;6314874;22;20003;-96
2023/02/07 16:54:45;;;;;;;48.20;21.90;;;;;;;;;;6294509;22;20003;-94
2023/02/07 16:57:47;;;;;;;47.72;20.77;;;;;;;;;;6314643;22;20007;-94
2023/02/07 17:00:21;;;;;;;41.35;19.67;;;;;;;;;;6286339;22;20094;-91
2023/02/07 17:03:20;;;;;;;44.38;20.48;;;;;;;;;;6328240;22;20022;-92
2023/02/07 17:06:08;;;;;;;51.60;22.63;;;;;;;;;;6323447;22;20383;-96
2023/02/07 17:08:40;;;;;;;48.90;24.55;;;;;;;;;;6318678;22;20062;-95
2023/02/07 17:11:14;;;;;;;72.90;31.77;;;;;;;;;;6296300;22;20086;-94
2023/02/07 17:14:00;;;;;;;82.63;34.17;;;;;;;;;;6306839;22;19995;-92
2023/02/07 17:16:27;;;;;;;78.05;32.65;;;;;;;;;;6302454;22;20047;-92
2023/02/07 17:18:55;;;;;;;51.28;26.02;;;;;;;;;;6300387;22;20008;-95
2023/02/07 17:21:26;;;;;;;62.35;27.77;;;;;;;;;;6328209;22;20015;-92
2023/02/07 17:23:56;;;;;;;59.60;27.52;;;;;;;;;;6362719;22;20102;-93
2023/02/07 17:26:27;;;;;;;64.80;29.48;;;;;;;;;;6326241;22;20025;-92
2023/02/07 17:28:58;;;;;;;58.53;27.83;;;;;;;;;;6323129;22;20049;-96
2023/02/07 17:31:25;;;;;;;51.40;24.63;;;;;;;;;;6346073;22;20090;-95
2023/02/07 17:33:55;;;;;;;46.08;24.50;;;;;;;;;;6294145;22;20011;-93
2023/02/07 17:36:21;;;;;;;46.55;22.67;;;;;;;;;;6305618;22;20007;-91
2023/02/07 17:38:47;;;;;;;52.90;23.83;;;;;;;;;;6319829;22;20003;-92
2023/02/07 17:41:18;;;;;;;49.85;22.20;;;;;;;;;;6319445;22;20023;-90
2023/02/07 17:43:46;;;;;;;45.17;22.15;;;;;;;;;;6347849;22;19999;-92
2023/02/07 17:46:19;;;;;;;42.42;20.58;;;;;;;;;;6344813;22;20007;-96
2023/02/07 17:48:47;;;;;;;42.75;21.58;;;;;;;;;;6339041;22;20009;-95
2023/02/07 17:51:21;;;;;;;44.90;21.85;;;;;;;;;;6295437;22;20098;-94
2023/02/07 17:53:48;;;;;;;42.90;20.80;;;;;;;;;;6344499;22;20101;-94
2023/02/07 17:56:23;;;;;;;42.80;22.15;;;;;;;;;;6318879;22;20052;-95
2023/02/07 17:58:50;;;;;;;40.92;20.80;;;;;;;;;;6318844;22;20018;-94
2023/02/07 18:01:18;;;;;;;43.15;21.73;;;;;;;;;;6318856;22;20073;-96
2023/02/07 18:03:49;;;;;;;46.67;23.05;;;;;;;;;;6322566;22;20047;-95
2023/02/07 18:06:21;;;;;;;45.42;23.58;;;;;;;;;;6348170;22;20110;-95
2023/02/07 18:08:51;;;;;;;49.55;22.80;;;;;;;;;;6346605;22;20048;-95
2023/02/07 18:11:20;;;;;;;41.05;21.58;;;;;;;;;;6320796;22;20003;-93
2023/02/07 18:13:47;;;;;;;40.78;19.35;;;;;;;;;;6324240;22;20558;-95
2023/02/07 18:16:17;;;;;;;41.25;20.75;;;;;;;;;;6326208;22;20460;-96
2023/02/07 18:18:48;;;;;;;44.17;20.92;;;;;;;;;;6348318;22;20432;-95
2023/02/07 18:21:20;;;;;;;46.90;23.30;;;;;;;;;;6326850;22;20010;-95
2023/02/07 18:23:52;;;;;;;46.28;23.55;;;;;;;;;;6351696;22;20003;-95
2023/02/07 18:26:21;;;;;;;51.50;24.23;;;;;;;;;;6351645;22;20027;-96
2023/02/07 18:28:53;;;;;;;61.03;26.27;;;;;;;;;;6321237;22;20237;-96
2023/02/07 18:31:24;;;;;;;53.15;25.00;;;;;;;;;;6351551;22;20003;-95
2023/02/07 18:33:53;;;;;;;56.88;26.35;;;;;;;;;;6325266;22;20115;-94
2023/02/07 18:36:28;;;;;;;57.53;25.02;;;;;;;;;;6323918;22;20010;-95
2023/02/07 18:38:57;;;;;;;46.50;22.10;;;;;;;;;;6323011;22;20007;-96
2023/02/07 18:41:25;;;;;;;49.80;22.65;;;;;;;;;;6348046;22;20053;-93
2023/02/07 18:43:51;;;;;;;45.47;20.88;;;;;;;;;;6356209;22;20037;-92
2023/02/07 18:46:19;;;;;;;45.15;22.13;;;;;;;;;;6308992;22;20428;-94
2023/02/07 18:48:49;;;;;;;49.13;24.35;;;;;;;;;;6352111;22;20534;-95
2023/02/07 18:51:22;;;;;;;56.42;26.02;;;;;;;;;;6347431;22;19999;-93
2023/02/07 18:53:49;;;;;;;64.70;27.70;;;;;;;;;;6349459;22;20051;-93
2023/02/07 18:56:17;;;;;;;55.80;23.45;;;;;;;;;;6321549;22;20002;-93
2023/02/07 18:58:45;;;;;;;41.45;20.25;;;;;;;;;;6318651;22;19999;-93
2023/02/07 19:01:24;;;;;;;50.40;21.63;;;;;;;;;;6323296;22;20023;-95
2023/02/07 19:03:57;;;;;;;44.47;21.30;;;;;;;;;;6349923;22;20007;-96
2023/02/07 19:06:30;;;;;;;51.35;22.50;;;;;;;;;;6355911;22;20077;-94
2023/02/07 19:08:57;;;;;;;52.80;22.42;;;;;;;;;;6298609;22;20007;-95
2023/02/07 19:11:25;;;;;;;46.10;20.95;;;;;;;;;;6323316;22;20006;-96
2023/02/07 19:13:54;;;;;;;46.83;22.13;;;;;;;;;;6320284;22;20309;-94
2023/02/07 19:16:22;;;;;;;44.55;20.90;;;;;;;;;;6302224;22;20014;-94
2023/02/07 19:19:02;;;;;;;50.80;22.77;;;;;;;;;;6322546;22;20327;-95
2023/02/07 19:21:33;;;;;;;45.92;20.58;;;;;;;;;;6348989;22;20018;-96
2023/02/07 19:24:09;;;;;;;42.67;20.42;;;;;;;;;;6294562;22;20055;-94
2023/02/07 19:26:35;;;;;;;43.30;19.50;;;;;;;;;;6328669;22;20007;-94
2023/02/07 19:29:29;;;;;;;;;;;;;;;;;;;;;
2023/02/07 19:32:09;;;;;;;45.47;20.30;;;;;;;;;;6324813;22;20037;-96
2023/02/07 19:34:56;;;;;;;42.40;19.45;;;;;;;;;;6319658;22;20007;-95
2023/02/07 19:37:36;;;;;;;40.78;19.35;;;;;;;;;;6323570;22;20076;-96
2023/02/07 19:40:20;;;;;;;43.97;19.73;;;;;;;;;;6324426;22;20010;-96
2023/02/07 19:43:04;;;;;;;41.75;19.80;;;;;;;;;;6352015;22;20003;-93
2023/02/07 19:45:50;;;;;;;42.65;19.75;;;;;;;;;;6323822;22;19999;-94
2023/02/07 19:48:24;;;;;;;;;;;;;;;;;;6349241;22;20018;-93
2023/02/07 19:51:03;;;;;;;39.25;18.55;;;;;;;;;;6316646;22;20212;-92
2023/02/07 19:53:32;;;;;;;42.50;19.17;;;;;;;;;;6316251;22;20011;-94
2023/02/07 19:56:01;;;;;;;45.90;20.63;;;;;;;;;;6319997;22;20030;-95
2023/02/07 19:58:31;;;;;;;41.05;19.33;;;;;;;;;;6354228;22;19991;-92
2023/02/07 20:01:03;;;;;;;41.13;20.92;;;;;;;;;;6365174;22;20018;-92
2023/02/07 20:03:49;;;;;;;45.90;21.48;;;;;;;;;;6358294;22;20006;-93
2023/02/07 20:06:38;;;;;;;46.72;21.50;;;;;;;;;;6352818;22;20086;-93
2023/02/07 20:09:05;;;;;;;44.90;21.27;;;;;;;;;;6319003;22;20021;-95
2023/02/07 20:11:40;;;;;;;46.30;20.23;;;;;;;;;;6319859;22;20003;-92
2023/02/07 20:14:24;;;;;;;45.08;20.88;;;;;;;;;;6343030;22;20017;-94
2023/02/07 20:16:57;;;;;;;42.23;19.63;;;;;;;;;;6321415;22;20003;-95
2023/02/07 20:19:30;;;;;;;45.40;21.65;;;;;;;;;;6293367;22;20015;-95
2023/02/07 20:22:04;;;;;;;43.20;19.75;;;;;;;;;;6321206;22;20110;-96
2023/02/07 20:24:34;;;;;;;43.92;20.48;;;;;;;;;;6320581;22;20007;-95
2023/02/07 20:27:11;;;;;;;41.42;19.55;;;;;;;;;;6329202;22;20040;-91
2023/02/07 20:29:51;;;;;;;42.75;19.75;;;;;;;;;;6359531;22;20124;-93
2023/02/07 20:32:26;;;;;;;44.42;20.42;;;;;;;;;;6322840;22;20014;-95
2023/02/07 20:35:11;;;;;;;40.13;17.83;;;;;;;;;;6319568;22;20058;-96
2023/02/07 20:37:46;;;;;;;43.50;18.70;;;;;;;;;;6295575;22;20093;-95
2023/02/07 20:40:23;;;;;;;42.33;17.65;;;;;;;;;;6343073;22;20022;-95
2023/02/07 20:42:49;;;;;;;33.97;15.68;;;;;;;;;;6293593;22;20002;-93
2023/02/07 20:45:16;;;;;;;35.83;16.50;;;;;;;;;;6317841;22;20066;-92
2023/02/07 20:47:44;;;;;;;37.03;17.17;;;;;;;;;;6323908;22;20086;-95
2023/02/07 20:50:10;;;;;;;46.28;18.58;;;;;;;;;;6321133;22;20048;-92
2023/02/07 20:52:48;;;;;;;47.20;20.88;;;;;;;;;;6322240;22;20014;-95
2023/02/07 20:55:29;;;;;;;53.97;21.35;;;;;;;;;;6297000;22;20064;-95
2023/02/07 20:57:56;;;;;;;45.85;19.75;;;;;;;;;;6322518;22;20411;-94
2023/02/07 21:00:25;;;;;;;41.47;18.58;;;;;;;;;;6346767;22;20025;-91
2023/02/07 21:02:59;;;;;;;44.60;19.00;;;;;;;;;;6316733;22;19999;-94
2023/02/07 21:05:30;;;;;;;39.70;17.35;;;;;;;;;;6321486;22;20058;-96
2023/02/07 21:08:00;;;;;;;36.53;16.50;;;;;;;;;;6329556;22;19999;-93
2023/02/07 21:10:26;;;;;;;33.80;16.85;;;;;;;;;;6297145;22;20007;-93
2023/02/07 21:12:53;;;;;;;38.58;17.55;;;;;;;;;;6320531;22;20055;-95
2023/02/07 21:15:24;;;;;;;36.60;16.75;;;;;;;;;;6319956;22;20007;-95
2023/02/07 21:17:52;;;;;;;36.30;16.02;;;;;;;;;;6317268;22;20010;-96
2023/02/07 21:20:18;;;;;;;40.58;17.60;;;;;;;;;;6291443;22;20110;-92
2023/02/07 21:22:44;;;;;;;42.60;19.38;;;;;;;;;;6315877;22;20078;-93
2023/02/07 21:25:12;;;;;;;50.70;21.73;;;;;;;;;;6316494;22;20011;-96
2023/02/07 21:27:39;;;;;;;45.35;21.30;;;;;;;;;;6317728;22;20416;-95
2023/02/07 21:30:06;;;;;;;48.00;21.70;;;;;;;;;;6316858;22;20066;-96
2023/02/07 21:32:34;;;;;;;62.95;26.08;;;;;;;;;;6290159;22;20003;-96
2023/02/07 21:35:00;;;;;;;49.97;22.60;;;;;;;;;;6291290;22;20007;-96
2023/02/07 21:37:28;;;;;;;44.50;20.08;;;;;;;;;;6345101;22;20042;-96
2023/02/07 21:39:54;;;;;;;38.13;17.42;;;;;;;;;;6292391;22;20019;-95
2023/02/07 21:42:23;;;;;;;42.13;19.50;;;;;;;;;;6317632;22;20006;-96
2023/02/07 21:44:51;;;;;;;37.72;16.48;;;;;;;;;;6291315;22;20594;-94
2023/02/07 21:47:19;;;;;;;38.53;17.15;;;;;;;;;;6343717;22;20030;-96
2023/02/07 21:49:45;;;;;;;37.33;17.67;;;;;;;;;;6341695;22;20309;-92
2023/02/07 21:52:15;;;;;;;35.22;17.45;;;;;;;;;;6314982;22;19995;-93
2023/02/07 21:54:41;;;;;;;35.88;16.27;;;;;;;;;;6313871;22;20010;-94
2023/02/07 21:57:07;;;;;;;34.25;15.45;;;;;;;;;;6313386;22;20491;-95
2023/02/07 21:59:34;;;;;;;38.25;16.88;;;;;;;;;;6312843;22;20093;-94
2023/02/07 22:02:04;;;;;;;35.85;15.55;;;;;;;;;;6313426;22;20003;-94
2023/02/07 22:04:32;;;;;;;39.63;17.40;;;;;;;;;;6341238;22;20309;-94
2023/02/07 22:06:59;;;;;;;37.83;18.08;;;;;;;;;;6340876;22;20067;-96
2023/02/07 22:09:25;;;;;;;49.75;22.80;;;;;;;;;;6324409;22;20006;-93
2023/02/07 22:11:53;;;;;;;43.53;19.75;;;;;;;;;;6334095;22;20002;-94
2023/02/07 22:14:21;;;;;;;40.47;19.02;;;;;;;;;;6348731;22;20003;-96
2023/02/07 22:16:51;;;;;;;44.33;19.38;;;;;;;;;;6287192;22;20102;-96
2023/02/07 22:19:17;;;;;;;47.10;21.77;;;;;;;;;;6312675;22;20364;-93
2023/02/07 22:21:44;;;;;;;46.47;19.70;;;;;;;;;;6313780;22;20076;-93
2023/02/07 22:24:11;;;;;;;42.72;18.92;;;;;;;;;;6314711;22;20003;-96
2023/02/07 22:26:37;;;;;;;46.83;19.90;;;;;;;;;;6315485;22;20297;-95
2023/02/07 22:29:05;;;;;;;59.30;22.52;;;;;;;;;;6316126;22;19999;-95
2023/02/07 22:31:33;;;;;;;53.45;23.48;;;;;;;;;;6289890;22;20062;-95
2023/02/07 22:34:05;;;;;;;62.25;25.15;;;;;;;;;;6343083;22;20003;-96
2023/02/07 22:36:32;;;;;;;99.97;35.45;;;;;;;;;;6313603;22;20003;-92
2023/02/07 22:38:59;;;;;;;74.85;29.05;;;;;;;;;;6315209;22;20392;-94
2023/02/07 22:41:26;;;;;;;63.00;24.50;;;;;;;;;;6345061;22;20014;-92
2023/02/07 22:43:52;;;;;;;63.42;25.65;;;;;;;;;;6339493;22;19991;-92
2023/02/07 22:46:20;;;;;;;56.03;22.90;;;;;;;;;;6333930;22;20011;-93
2023/02/07 22:48:47;;;;;;;44.42;19.52;;;;;;;;;;6326594;22;20003;-94
2023/02/07 22:51:15;;;;;;;48.30;20.45;;;;;;;;;;6288005;22;20448;-93
2023/02/07 22:53:44;;;;;;;46.03;20.02;;;;;;;;;;6314581;22;20007;-95
2023/02/07 22:56:26;;;;;;;48.63;21.15;;;;;;;;;;6314671;22;20007;-94
2023/02/07 22:58:55;;;;;;;42.92;19.02;;;;;;;;;;6316352;22;20442;-93
2023/02/07 23:01:21;;;;;;;48.08;21.38;;;;;;;;;;6315181;22;20011;-93
2023/02/07 23:03:48;;;;;;;74.13;30.23;;;;;;;;;;6315840;22;20010;-96
2023/02/07 23:06:14;;;;;;;78.63;29.23;;;;;;;;;;6317126;22;20003;-94
2023/02/07 23:08:40;;;;;;;51.00;21.42;;;;;;;;;;6321941;22;20025;-93
2023/02/07 23:11:08;;;;;;;44.22;19.85;;;;;;;;;;6317928;22;20019;-96
2023/02/07 23:13:34;;;;;;;43.15;18.02;;;;;;;;;;6313749;22;20022;-92
2023/02/07 23:16:01;;;;;;;43.95;18.42;;;;;;;;;;6315219;22;20002;-92
2023/02/07 23:18:27;;;;;;;40.40;17.25;;;;;;;;;;6315109;22;20010;-93
2023/02/07 23:20:53;;;;;;;40.38;17.20;;;;;;;;;;6313375;22;20027;-93
2023/02/07 23:23:21;;;;;;;41.83;18.13;;;;;;;;;;6315762;22;20030;-92
2023/02/07 23:25:50;;;;;;;42.00;18.95;;;;;;;;;;6316306;22;20150;-95
2023/02/07 23:28:19;;;;;;;43.40;18.27;;;;;;;;;;6314407;22;20332;-93
2023/02/07 23:30:48;;;;;;;46.13;19.60;;;;;;;;;;6290891;22;20010;-93
2023/02/07 23:33:17;;;;;;;48.63;19.98;;;;;;;;;;6316001;22;20006;-95
2023/02/07 23:35:51;;;;;;;46.15;19.40;;;;;;;;;;6318522;22;20003;-95
2023/02/07 23:38:19;;;;;;;46.67;19.88;;;;;;;;;;6317541;22;20085;-94
2023/02/07 23:40:46;;;;;;;45.55;19.55;;;;;;;;;;6318253;22;20015;-95
2023/02/07 23:43:12;;;;;;;46.38;19.88;;;;;;;;;;6289967;22;20009;-92
2023/02/07 23:45:38;;;;;;;53.58;22.10;;;;;;;;;;6315434;22;20025;-93
2023/02/07 23:48:06;;;;;;;53.53;22.30;;;;;;;;;;6344320;22;20043;-94
2023/02/07 23:50:42;;;;;;;50.47;20.70;;;;;;;;;;6346520;22;20006;-95
2023/02/07 23:53:10;;;;;;;47.53;21.10;;;;;;;;;;6337606;22;19982;-91
2023/02/07 23:55:41;;;;;;;51.92;22.55;;;;;;;;;;6326451;22;20011;-92
2023/02/07 23:58:10;;;;;;;55.47;23.92;;;;;;;;;;6294958;22;20339;-96
